Time;durP1;ratioP1;P1;durP2;ratioP2;P2;SDS_P1;SDS_P2;PMS_P1;PMS_P2;Temp;Humidity;BMP_temperature;BMP_pressure;BME280_temperature;BME280_humidity;BME280_pressure;Samples;Min_cycle;Max_cycle;Signal;HPM_P1;HPM_P2
2022/04/07 00:00:09;;;;;;;15.63;7.80;;;9.80;99.90;;;;;;5074579;28;20035;-87
2022/04/07 00:02:35;;;;;;;15.60;6.65;;;9.80;99.90;;;;;;5034822;28;20037;-86
2022/04/07 00:05:00;;;;;;;13.57;6.68;;;9.90;99.90;;;;;;5034611;28;20029;-86
2022/04/07 00:07:34;;;;;;;14.10;7.15;;;9.90;99.90;;;;;;5034611;28;20029;-87
2022/04/07 00:09:59;;;;;;;16.92;7.80;;;9.90;99.90;;;;;;5034296;28;20028;-86
2022/04/07 00:12:25;;;;;;;14.05;6.50;;;10.00;99.90;;;;;;5034540;28;20029;-86
2022/04/07 00:15:07;;;;;;;19.13;7.45;;;9.90;99.90;;;;;;5034557;28;20013;-86
2022/04/07 00:17:33;;;;;;;13.40;7.10;;;9.90;99.90;;;;;;5034392;28;20131;-85
2022/04/07 00:20:24;;;;;;;10.90;6.28;;;9.90;99.90;;;;;;5034268;28;20034;-85
2022/04/07 00:22:50;;;;;;;14.77;6.72;;;9.90;99.90;;;;;;5034243;28;20087;-86
2022/04/07 00:25:34;;;;;;;14.48;6.20;;;10.00;99.90;;;;;;5034020;28;20025;-85
2022/04/07 00:28:00;;;;;;;11.63;6.20;;;9.90;99.90;;;;;;5014402;28;20449;-85
2022/04/07 00:30:39;;;;;;;18.17;6.65;;;10.00;99.90;;;;;;5014446;28;20060;-85
2022/04/07 00:33:07;;;;;;;12.90;7.05;;;9.90;99.90;;;;;;5014573;28;20022;-85
2022/04/07 00:35:43;;;;;;;14.60;6.80;;;10.00;99.90;;;;;;5014540;28;20022;-87
2022/04/07 00:38:08;;;;;;;13.70;7.43;;;9.90;99.90;;;;;;5013165;28;20080;-86
2022/04/07 00:40:46;;;;;;;12.60;6.82;;;10.00;99.90;;;;;;5025640;28;20412;-86
2022/04/07 00:43:32;;;;;;;10.40;6.13;;;10.00;99.90;;;;;;5034096;28;20033;-87
2022/04/07 00:45:59;;;;;;;9.98;7.13;;;10.00;99.90;;;;;;5033815;28;20049;-86
2022/04/07 00:48:26;;;;;;;14.90;6.35;;;10.00;99.90;;;;;;5032650;28;20064;-86
2022/04/07 00:50:59;;;;;;;15.63;7.13;;;10.00;99.90;;;;;;5032338;28;20029;-86
2022/04/07 00:53:25;;;;;;;11.63;6.78;;;10.00;99.90;;;;;;5033678;28;20382;-85
2022/04/07 00:55:51;;;;;;;10.85;7.03;;;10.00;99.90;;;;;;5033440;28;20018;-87
2022/04/07 00:58:38;;;;;;;13.98;6.63;;;10.00;99.90;;;;;;5031795;28;20366;-86
2022/04/07 01:01:06;;;;;;;12.05;5.95;;;10.00;99.90;;;;;;5049478;28;20048;-86
2022/04/07 01:03:32;;;;;;;15.43;6.30;;;10.00;99.90;;;;;;5055026;28;20071;-86
2022/04/07 01:06:15;;;;;;;14.85;5.95;;;10.00;99.90;;;;;;5073358;28;20028;-85
2022/04/07 01:08:41;;;;;;;11.90;6.40;;;10.00;99.90;;;;;;5058536;28;20452;-85
2022/04/07 01:11:21;;;;;;;12.57;7.07;;;9.90;99.90;;;;;;5073316;28;20021;-85
2022/04/07 01:13:51;;;;;;;10.70;5.85;;;10.00;99.90;;;;;;5073283;28;20169;-85
2022/04/07 01:16:27;;;;;;;13.20;5.60;;;9.90;99.90;;;;;;5073047;28;20073;-85
2022/04/07 01:18:52;;;;;;;13.05;5.80;;;9.90;99.90;;;;;;5073031;28;20017;-86
2022/04/07 01:21:34;;;;;;;10.85;5.68;;;9.90;99.90;;;;;;5073065;28;20549;-86
2022/04/07 01:24:04;;;;;;;16.58;6.63;;;10.00;99.90;;;;;;5055107;28;20082;-85
2022/04/07 01:26:33;;;;;;;14.43;6.05;;;10.00;99.90;;;;;;5073211;28;20017;-85
2022/04/07 01:29:01;;;;;;;9.07;5.00;;;10.00;99.90;;;;;;5072796;28;20091;-86
2022/04/07 01:31:27;;;;;;;9.27;5.18;;;10.00;99.90;;;;;;5072904;28;20020;-86
2022/04/07 01:34:03;;;;;;;12.80;5.45;;;9.90;99.90;;;;;;5072808;28;20161;-87
2022/04/07 01:36:34;;;;;;;11.55;5.60;;;9.90;99.90;;;;;;5072994;28;20063;-87
2022/04/07 01:39:01;;;;;;;11.15;5.38;;;9.90;99.90;;;;;;5054548;28;20031;-86
2022/04/07 01:41:50;;;;;;;10.23;5.47;;;9.90;99.90;;;;;;5072830;28;20531;-87
2022/04/07 01:44:17;;;;;;;13.25;5.97;;;9.90;99.90;;;;;;5054739;28;20029;-86
2022/04/07 01:46:43;;;;;;;16.08;6.72;;;9.90;99.90;;;;;;5072781;28;20035;-85
2022/04/07 01:49:28;;;;;;;7.57;4.85;;;10.00;99.90;;;;;;5072738;28;20444;-86
2022/04/07 01:51:54;;;;;;;13.77;5.45;;;10.00;99.90;;;;;;5035368;28;20036;-86
2022/04/07 01:54:19;;;;;;;9.70;5.38;;;10.00;99.90;;;;;;5069027;28;20364;-86
2022/04/07 01:56:56;;;;;;;12.82;5.38;;;10.00;99.90;;;;;;5072869;28;20472;-87
2022/04/07 01:59:22;;;;;;;9.68;5.38;;;10.00;99.90;;;;;;5072818;28;20063;-86
2022/04/07 02:01:47;;;;;;;6.03;4.10;;;10.00;99.90;;;;;;5065003;28;20468;-87
2022/04/07 02:04:23;;;;;;;13.00;4.85;;;10.00;99.90;;;;;;5072625;28;20104;-86
2022/04/07 02:06:48;;;;;;;10.50;5.07;;;9.90;99.90;;;;;;5072724;28;20029;-86
2022/04/07 02:09:14;;;;;;;8.20;4.88;;;10.00;99.90;;;;;;5072495;28;20361;-85
2022/04/07 02:11:41;;;;;;;6.40;4.40;;;10.00;99.90;;;;;;5072500;28;20024;-86
2022/04/07 02:14:06;;;;;;;12.50;5.45;;;10.00;99.90;;;;;;5072580;28;20017;-87
2022/04/07 02:16:32;;;;;;;15.73;4.75;;;9.90;99.90;;;;;;5076138;28;20032;-86
2022/04/07 02:19:11;;;;;;;10.02;4.78;;;9.90;99.90;;;;;;5076604;28;20040;-86
2022/04/07 02:21:36;;;;;;;10.25;5.50;;;9.90;99.90;;;;;;5076574;28;20024;-86
2022/04/07 02:24:02;;;;;;;7.60;4.95;;;9.80;99.90;;;;;;5076106;28;20021;-86
2022/04/07 02:26:35;;;;;;;13.40;6.32;;;9.80;99.90;;;;;;5076502;28;20491;-87
2022/04/07 02:29:01;;;;;;;8.45;4.78;;;9.80;99.90;;;;;;5058592;28;20046;-87
2022/04/07 02:31:28;;;;;;;8.20;5.13;;;9.90;99.90;;;;;;5058376;28;20566;-87
2022/04/07 02:33:53;;;;;;;7.82;5.18;;;9.80;99.90;;;;;;5075982;28;20056;-86
2022/04/07 02:36:19;;;;;;;9.15;5.18;;;9.80;99.90;;;;;;5076031;28;20530;-87
2022/04/07 02:38:46;;;;;;;9.95;5.70;;;9.80;99.90;;;;;;5075990;28;20117;-87
2022/04/07 02:41:11;;;;;;;6.45;5.00;;;9.80;99.90;;;;;;5076220;28;20102;-86
2022/04/07 02:43:50;;;;;;;8.07;4.50;;;9.80;99.90;;;;;;5076042;28;20028;-86
2022/04/07 02:46:15;;;;;;;10.23;5.20;;;9.80;99.90;;;;;;5075886;28;20059;-87
2022/04/07 02:48:41;;;;;;;7.85;5.15;;;9.80;99.90;;;;;;5058246;28;20055;-86
2022/04/07 02:51:17;;;;;;;7.20;5.07;;;9.80;99.90;;;;;;5058162;28;20019;-86
2022/04/07 02:53:42;;;;;;;7.75;5.15;;;9.90;99.90;;;;;;5075501;28;20031;-87
2022/04/07 02:56:12;;;;;;;11.55;5.00;;;9.80;99.90;;;;;;5075861;28;20020;-87
2022/04/07 02:58:37;;;;;;;8.15;4.50;;;9.80;99.90;;;;;;5058165;28;20046;-86
2022/04/07 03:01:15;;;;;;;9.88;5.82;;;9.90;99.90;;;;;;5075654;28;20063;-87
2022/04/07 03:03:41;;;;;;;8.13;4.55;;;9.90;99.90;;;;;;5057805;28;20112;-87
2022/04/07 03:06:06;;;;;;;11.75;5.03;;;9.90;99.90;;;;;;5057855;28;20116;-87
2022/04/07 03:08:48;;;;;;;7.80;4.97;;;9.90;99.90;;;;;;5057727;28;20024;-87
2022/04/07 03:11:13;;;;;;;7.15;4.95;;;9.90;99.90;;;;;;5057855;28;20403;-87
2022/04/07 03:13:42;;;;;;;7.75;4.32;;;9.90;99.90;;;;;;5057346;28;20013;-87
2022/04/07 03:16:08;;;;;;;8.20;4.88;;;9.90;99.90;;;;;;5075578;28;20052;-86
2022/04/07 03:18:35;;;;;;;10.25;4.93;;;10.00;99.90;;;;;;5075466;28;20021;-86
2022/04/07 03:21:03;;;;;;;10.15;5.05;;;10.00;99.90;;;;;;5075233;28;20423;-86
2022/04/07 03:23:28;;;;;;;7.72;4.88;;;10.00;99.90;;;;;;5075214;28;20478;-85
2022/04/07 03:25:55;;;;;;;14.25;4.82;;;10.00;99.90;;;;;;5075427;28;20032;-86
2022/04/07 03:28:20;;;;;;;7.72;4.40;;;10.00;99.90;;;;;;5074563;28;20028;-86
2022/04/07 03:30:54;;;;;;;10.45;5.20;;;10.00;99.90;;;;;;5074943;28;20074;-87
2022/04/07 03:33:20;;;;;;;6.82;3.50;;;10.00;99.90;;;;;;5075069;28;20103;-87
2022/04/07 03:35:48;;;;;;;8.40;4.50;;;10.10;99.90;;;;;;5057535;28;20056;-87
2022/04/07 03:38:13;;;;;;;9.10;3.97;;;10.10;99.90;;;;;;5075356;28;20027;-87
2022/04/07 03:40:45;;;;;;;10.15;4.90;;;10.10;99.90;;;;;;5075201;28;20024;-87
2022/04/07 03:43:10;;;;;;;8.65;4.40;;;10.10;99.90;;;;;;5075172;28;20033;-87
2022/04/07 03:45:38;;;;;;;7.00;3.75;;;10.00;99.90;;;;;;5075246;28;20046;-87
2022/04/07 03:48:04;;;;;;;10.98;4.55;;;10.10;99.90;;;;;;5074906;28;20029;-85
2022/04/07 03:50:42;;;;;;;6.22;3.90;;;10.10;99.90;;;;;;5057034;28;20027;-88
2022/04/07 03:53:08;;;;;;;9.43;4.22;;;10.10;99.90;;;;;;5063661;28;20071;-87
2022/04/07 03:55:40;;;;;;;11.85;4.40;;;10.20;99.90;;;;;;5066200;28;20427;-88
2022/04/07 03:58:06;;;;;;;9.00;3.72;;;10.10;99.90;;;;;;5074966;28;20571;-87
2022/04/07 04:00:32;;;;;;;8.10;4.03;;;10.10;99.90;;;;;;5074965;28;20035;-87
2022/04/07 04:02:58;;;;;;;6.00;3.53;;;10.20;99.90;;;;;;5071711;28;20035;-89
2022/04/07 04:05:35;;;;;;;5.57;3.42;;;10.10;99.90;;;;;;5057037;28;20021;-87
2022/04/07 04:08:01;;;;;;;10.70;4.32;;;10.10;99.90;;;;;;5074506;28;20131;-88
2022/04/07 04:10:26;;;;;;;10.43;4.18;;;10.10;99.90;;;;;;5074323;28;20099;-88
2022/04/07 04:12:54;;;;;;;7.78;3.08;;;10.10;99.90;;;;;;5074485;28;20104;-86
2022/04/07 04:15:20;;;;;;;5.18;2.88;;;10.10;99.90;;;;;;5074404;28;20021;-90
2022/04/07 04:17:45;;;;;;;8.88;2.95;;;10.10;99.90;;;;;;5074568;28;20142;-86
2022/04/07 04:20:13;;;;;;;6.93;3.05;;;10.00;99.90;;;;;;5074553;28;20471;-87
2022/04/07 04:22:38;;;;;;;6.55;3.25;;;9.90;99.90;;;;;;5074253;28;20025;-87
2022/04/07 04:25:08;;;;;;;6.72;2.97;;;9.80;99.90;;;;;;5074275;28;20107;-88
2022/04/07 04:27:34;;;;;;;5.13;2.45;;;9.80;99.90;;;;;;5056239;28;20484;-86
2022/04/07 04:30:00;;;;;;;3.60;2.10;;;9.80;99.90;;;;;;5056530;28;20020;-90
2022/04/07 04:32:25;;;;;;;2.10;1.75;;;9.80;99.90;;;;;;5055800;28;20101;-88
2022/04/07 04:34:51;;;;;;;3.63;1.70;;;9.70;99.90;;;;;;5074084;28;20051;-85
2022/04/07 04:37:21;;;;;;;2.80;1.63;;;9.60;99.90;;;;;;5074139;28;20481;-87
2022/04/07 04:39:47;;;;;;;10.85;1.80;;;9.50;99.90;;;;;;5072522;28;20383;-86
2022/04/07 04:42:12;;;;;;;2.50;1.40;;;9.50;99.90;;;;;;5073995;28;20099;-86
2022/04/07 04:44:49;;;;;;;3.60;1.33;;;9.40;99.90;;;;;;5056273;28;20029;-86
2022/04/07 04:47:17;;;;;;;2.05;1.25;;;9.40;99.90;;;;;;5074085;28;20022;-87
2022/04/07 04:49:50;;;;;;;2.25;1.20;;;9.30;99.90;;;;;;5073837;28;20073;-85
2022/04/07 04:52:15;;;;;;;1.58;1.15;;;9.30;99.90;;;;;;5073706;28;20108;-86
2022/04/07 04:54:42;;;;;;;2.55;1.02;;;9.30;99.90;;;;;;5073184;28;20434;-87
2022/04/07 04:57:08;;;;;;;1.75;1.38;;;9.20;99.90;;;;;;5073620;28;20203;-86
2022/04/07 04:59:34;;;;;;;2.40;1.40;;;9.20;99.90;;;;;;5073689;28;20123;-88
2022/04/07 05:02:00;;;;;;;1.92;1.40;;;9.20;99.90;;;;;;5071908;28;20045;-87
2022/04/07 05:05:05;;;;;;;2.85;1.60;;;9.20;99.90;;;;;;5073627;28;20029;-87
2022/04/07 05:07:30;;;;;;;4.70;2.08;;;9.20;99.90;;;;;;5073237;28;20017;-86
2022/04/07 05:09:56;;;;;;;4.25;2.40;;;9.30;99.90;;;;;;5073333;28;20074;-90
2022/04/07 05:12:28;;;;;;;2.67;2.20;;;9.20;99.90;;;;;;5073385;28;20027;-86
2022/04/07 05:14:54;;;;;;;4.55;2.60;;;9.20;99.90;;;;;;5073627;28;20048;-89
2022/04/07 05:17:31;;;;;;;5.45;3.08;;;9.10;99.90;;;;;;5073632;28;20020;-89
2022/04/07 05:19:56;;;;;;;4.22;2.58;;;9.10;99.90;;;;;;5073445;28;20028;-87
2022/04/07 05:22:25;;;;;;;7.50;3.85;;;9.20;99.90;;;;;;5072869;28;20031;-86
2022/04/07 05:24:52;;;;;;;7.15;3.78;;;9.20;99.90;;;;;;5072317;28;20033;-86
2022/04/07 05:27:17;;;;;;;7.20;3.83;;;9.20;99.90;;;;;;5073345;28;20032;-86
2022/04/07 05:29:43;;;;;;;7.18;4.75;;;9.30;99.90;;;;;;5073083;28;20024;-87
2022/04/07 05:32:08;;;;;;;6.70;3.55;;;9.20;99.90;;;;;;5073218;28;20017;-87
2022/04/07 05:34:45;;;;;;;7.85;3.88;;;9.20;99.90;;;;;;5073316;28;20059;-88
2022/04/07 05:37:11;;;;;;;10.18;4.80;;;9.30;99.90;;;;;;5073095;28;20028;-86
2022/04/07 05:39:54;;;;;;;11.57;3.00;;;9.30;99.90;;;;;;5072971;28;20028;-88
2022/04/07 05:42:19;;;;;;;6.32;3.08;;;9.30;99.90;;;;;;5073036;28;20028;-87
2022/04/07 05:45:25;;;;;;;10.90;3.85;;;9.30;99.90;;;;;;5072943;28;20431;-87
2022/04/07 05:47:51;;;;;;;4.75;2.33;;;9.40;99.90;;;;;;5054775;28;20077;-87
2022/04/07 05:50:22;;;;;;;6.68;3.08;;;9.40;99.90;;;;;;5072558;28;20459;-89
2022/04/07 05:52:47;;;;;;;8.52;2.20;;;9.40;99.90;;;;;;5072511;28;20104;-86
2022/04/07 05:55:16;;;;;;;3.60;2.65;;;9.40;99.90;;;;;;5072851;28;20118;-86
2022/04/07 05:57:43;;;;;;;2.92;1.85;;;9.40;99.90;;;;;;5073058;28;20024;-88
2022/04/07 06:00:32;;;;;;;2.30;1.73;;;9.40;99.90;;;;;;5072759;28;20469;-87
2022/04/07 06:03:24;;;;;;;2.53;1.70;;;9.40;99.90;;;;;;5072643;28;20072;-89
2022/04/07 06:05:53;;;;;;;1.50;1.40;;;9.40;99.90;;;;;;5072730;28;20033;-86
2022/04/07 06:08:25;;;;;;;5.38;1.50;;;9.50;99.90;;;;;;5072454;28;20043;-87
2022/04/07 06:10:51;;;;;;;1.35;1.25;;;9.50;99.90;;;;;;5072620;28;20016;-88
2022/04/07 06:13:17;;;;;;;1.38;1.10;;;9.50;99.90;;;;;;5072627;28;20024;-86
2022/04/07 06:15:43;;;;;;;2.85;1.40;;;9.40;99.90;;;;;;5072781;28;20575;-86
2022/04/07 06:18:27;;;;;;;3.83;1.58;;;9.60;99.90;;;;;;5072530;28;20031;-87
2022/04/07 06:20:53;;;;;;;1.67;1.15;;;9.50;99.90;;;;;;5072646;28;20052;-87
2022/04/07 06:23:34;;;;;;;2.88;1.65;;;9.60;99.90;;;;;;5072121;28;20071;-88
2022/04/07 06:25:59;;;;;;;2.95;1.13;;;9.60;99.90;;;;;;5072639;28;20415;-87
2022/04/07 06:28:27;;;;;;;3.05;1.50;;;9.60;99.90;;;;;;5072463;28;20472;-88
2022/04/07 06:30:54;;;;;;;1.63;1.38;;;9.60;99.90;;;;;;5072773;28;20099;-86
2022/04/07 06:33:38;;;;;;;1.30;1.20;;;9.70;99.90;;;;;;5072481;28;20108;-91
2022/04/07 06:36:04;;;;;;;2.67;1.90;;;9.80;99.90;;;;;;5072452;28;20028;-87
2022/04/07 06:38:41;;;;;;;3.67;1.65;;;9.70;99.90;;;;;;5054353;28;20086;-86
2022/04/07 06:41:07;;;;;;;2.20;1.42;;;9.80;99.90;;;;;;5072448;28;20503;-86
2022/04/07 06:43:32;;;;;;;5.97;1.50;;;9.80;99.90;;;;;;5072373;28;20028;-87
2022/04/07 06:45:58;;;;;;;3.08;1.65;;;9.80;99.90;;;;;;5054666;28;20373;-87
2022/04/07 06:48:25;;;;;;;4.55;1.85;;;9.90;99.90;;;;;;5072235;28;20040;-87
2022/04/07 06:50:51;;;;;;;2.40;1.70;;;9.90;99.90;;;;;;5072260;28;20480;-88
2022/04/07 06:53:27;;;;;;;1.52;1.42;;;9.90;99.90;;;;;;5053887;28;20028;-88
2022/04/07 06:55:52;;;;;;;3.38;1.42;;;9.90;99.90;;;;;;5072390;28;20376;-86
2022/04/07 06:58:18;;;;;;;2.60;1.70;;;10.10;99.90;;;;;;5054288;28;20031;-87
2022/04/07 07:00:45;;;;;;;1.90;1.50;;;10.10;99.90;;;;;;5072398;28;20032;-88
2022/04/07 07:03:13;;;;;;;3.50;1.75;;;10.10;99.90;;;;;;5053303;28;20052;-88
2022/04/07 07:05:42;;;;;;;4.05;2.42;;;10.10;99.90;;;;;;5055897;28;20100;-85
2022/04/07 07:08:14;;;;;;;4.55;1.67;;;10.10;99.90;;;;;;5054053;28;20072;-86
2022/04/07 07:10:45;;;;;;;2.40;1.77;;;10.10;99.90;;;;;;5055648;28;20477;-86
2022/04/07 07:13:12;;;;;;;4.40;2.08;;;10.20;99.90;;;;;;5055444;28;20032;-85
2022/04/07 07:15:40;;;;;;;1.90;1.80;;;10.20;99.90;;;;;;5055655;28;20017;-86
2022/04/07 07:18:06;;;;;;;1.67;1.58;;;10.20;99.90;;;;;;5054353;28;20498;-86
2022/04/07 07:20:32;;;;;;;5.72;1.83;;;10.20;99.90;;;;;;5055354;28;20029;-85
2022/04/07 07:22:57;;;;;;;2.70;2.05;;;10.10;99.90;;;;;;5053692;28;20547;-85
2022/04/07 07:25:24;;;;;;;2.53;1.60;;;10.10;99.90;;;;;;5055459;28;20043;-85
2022/04/07 07:27:49;;;;;;;2.05;1.67;;;10.10;99.90;;;;;;5053939;28;20025;-87
2022/04/07 07:30:22;;;;;;;2.90;1.98;;;10.10;99.90;;;;;;5055269;28;20025;-85
2022/04/07 07:32:48;;;;;;;3.78;1.80;;;10.10;99.90;;;;;;5055078;28;20029;-85
2022/04/07 07:35:25;;;;;;;3.50;1.58;;;10.10;99.90;;;;;;5055207;28;20499;-86
2022/04/07 07:37:54;;;;;;;2.42;1.90;;;10.20;99.90;;;;;;5054816;28;20092;-86
2022/04/07 07:40:29;;;;;;;4.78;2.30;;;10.40;99.90;;;;;;5055116;28;20029;-85
2022/04/07 07:42:56;;;;;;;3.87;1.70;;;10.50;99.90;;;;;;5054997;28;20096;-86
2022/04/07 07:45:26;;;;;;;1.70;1.60;;;10.70;99.90;;;;;;5055059;28;20025;-86
2022/04/07 07:47:53;;;;;;;4.65;2.10;;;10.70;99.90;;;;;;5054918;28;20472;-84
2022/04/07 07:50:32;;;;;;;2.95;1.85;;;10.70;99.90;;;;;;5053613;28;20028;-86
2022/04/07 07:52:58;;;;;;;2.85;1.73;;;10.70;99.90;;;;;;5054815;28;20430;-85
2022/04/07 07:55:24;;;;;;;3.90;1.63;;;10.70;99.90;;;;;;5054854;28;20032;-87
2022/04/07 07:57:50;;;;;;;4.95;1.58;;;10.70;99.90;;;;;;5055015;28;20029;-86
2022/04/07 08:00:17;;;;;;;1.83;1.60;;;10.80;99.90;;;;;;5053447;28;20033;-88
2022/04/07 08:02:56;;;;;;;1.52;1.40;;;10.90;99.90;;;;;;5066205;28;20072;-85
2022/04/07 08:05:22;;;;;;;1.52;1.30;;;11.00;99.90;;;;;;5074637;28;20024;-87
2022/04/07 08:07:54;;;;;;;1.70;1.42;;;10.90;99.90;;;;;;5074119;28;20031;-86
2022/04/07 08:10:19;;;;;;;1.77;1.50;;;11.10;99.90;;;;;;5074566;28;20027;-85
2022/04/07 08:13:00;;;;;;;3.60;1.35;;;11.10;99.90;;;;;;5073791;28;20025;-86
2022/04/07 08:15:27;;;;;;;3.60;1.67;;;11.10;99.90;;;;;;5074055;28;20020;-86
2022/04/07 08:18:08;;;;;;;1.98;1.25;;;11.20;99.90;;;;;;5074400;28;20021;-86
2022/04/07 08:20:34;;;;;;;1.88;1.50;;;11.20;99.90;;;;;;5073876;28;20531;-86
2022/04/07 08:23:00;;;;;;;3.60;1.10;;;11.20;99.90;;;;;;5074022;28;20109;-87
2022/04/07 08:25:26;;;;;;;2.65;1.50;;;11.20;99.90;;;;;;5074186;28;20024;-86
2022/04/07 08:27:59;;;;;;;2.95;1.52;;;11.30;99.90;;;;;;5056034;28;20033;-87
2022/04/07 08:30:24;;;;;;;1.63;1.27;;;11.30;99.90;;;;;;5073978;28;20672;-86
2022/04/07 08:32:59;;;;;;;4.80;1.08;;;11.30;99.90;;;;;;5073638;28;20017;-89
2022/04/07 08:35:24;;;;;;;3.22;2.05;;;11.20;99.90;;;;;;5074044;28;20009;-86
2022/04/07 08:37:50;;;;;;;1.48;1.38;;;11.30;99.90;;;;;;5073677;28;20110;-89
2022/04/07 08:40:20;;;;;;;1.45;1.35;;;11.40;99.90;;;;;;5073732;28;20032;-87
2022/04/07 08:42:45;;;;;;;3.20;1.55;;;11.40;99.90;;;;;;5073816;28;20526;-86
2022/04/07 08:45:12;;;;;;;3.08;1.40;;;11.50;99.90;;;;;;5055909;28;20016;-86
2022/04/07 08:47:39;;;;;;;1.15;1.00;;;11.50;99.90;;;;;;5055902;28;20031;-87
2022/04/07 08:50:13;;;;;;;1.77;1.27;;;11.50;99.90;;;;;;5073839;28;20463;-89
2022/04/07 08:52:39;;;;;;;3.60;1.33;;;11.50;99.90;;;;;;5073541;28;20021;-87
2022/04/07 08:55:08;;;;;;;2.80;1.60;;;11.60;99.90;;;;;;5055754;28;20032;-87
2022/04/07 08:57:35;;;;;;;3.92;1.45;;;11.60;99.90;;;;;;5073724;28;20021;-88
2022/04/07 09:00:02;;;;;;;1.50;1.30;;;11.70;99.90;;;;;;5073671;28;20116;-87
2022/04/07 09:02:30;;;;;;;7.68;1.38;;;11.70;99.90;;;;;;5055301;28;20040;-88
2022/04/07 09:05:00;;;;;;;1.58;1.20;;;11.70;99.90;;;;;;5055679;28;20031;-86
2022/04/07 09:07:57;;;;;;;3.25;1.38;;;11.70;99.90;;;;;;5073090;28;20541;-87
2022/04/07 09:10:25;;;;;;;2.83;1.67;;;11.80;99.90;;;;;;5055510;28;20484;-88
2022/04/07 09:13:07;;;;;;;5.53;1.13;;;11.70;99.90;;;;;;5073323;28;20027;-86
2022/04/07 09:15:32;;;;;;;4.63;1.02;;;11.80;99.90;;;;;;5073286;28;20550;-87
2022/04/07 09:18:05;;;;;;;1.10;0.90;;;11.80;99.90;;;;;;5073253;28;20082;-86
2022/04/07 09:20:31;;;;;;;0.80;0.80;;;11.80;99.90;;;;;;5073319;28;20052;-86
2022/04/07 09:23:34;;;;;;;0.57;0.57;;;12.00;99.90;;;;;;5071622;28;20035;-90
2022/04/07 09:26:00;;;;;;;3.88;0.93;;;12.10;99.90;;;;;;5072549;28;20020;-87
2022/04/07 09:28:33;;;;;;;1.63;0.75;;;12.10;99.90;;;;;;5073154;28;20025;-87
2022/04/07 09:30:59;;;;;;;5.10;2.35;;;12.10;99.90;;;;;;5072915;28;20017;-86
2022/04/07 09:33:42;;;;;;;4.03;0.70;;;12.10;99.90;;;;;;5054745;28;20070;-87
2022/04/07 09:36:10;;;;;;;0.43;0.43;;;12.10;99.90;;;;;;5055079;28;20099;-86
2022/04/07 09:38:38;;;;;;;0.65;0.52;;;12.10;99.90;;;;;;5072537;28;20031;-87
2022/04/07 09:41:12;;;;;;;1.90;0.73;;;12.10;99.90;;;;;;5073127;28;20028;-88
2022/04/07 09:43:57;;;;;;;0.40;0.40;;;12.10;99.90;;;;;;5072754;28;20025;-86
2022/04/07 09:46:23;;;;;;;0.75;0.50;;;12.10;99.90;;;;;;5054644;28;20024;-87
2022/04/07 09:49:07;;;;;;;0.40;0.40;;;12.00;99.90;;;;;;5054600;28;20031;-90
2022/04/07 09:51:46;;;;;;;3.50;0.70;;;12.00;99.90;;;;;;5072680;28;20090;-86
2022/04/07 09:54:17;;;;;;;5.72;0.60;;;12.00;99.90;;;;;;5072500;28;20073;-87
2022/04/07 09:56:48;;;;;;;27.90;8.82;;;12.10;99.90;;;;;;5072789;28;20029;-87
2022/04/07 09:59:19;;;;;;;16.95;3.92;;;12.00;99.90;;;;;;5054750;28;20036;-88
2022/04/07 10:01:50;;;;;;;1.05;0.60;;;12.00;99.90;;;;;;5072649;28;20058;-91
2022/04/07 10:04:19;;;;;;;1.73;0.80;;;12.00;99.90;;;;;;5072896;28;20024;-88
2022/04/07 10:06:46;;;;;;;0.43;0.43;;;12.00;99.90;;;;;;5072703;28;20035;-88
2022/04/07 10:09:14;;;;;;;1.08;0.60;;;12.00;99.90;;;;;;5054441;28;20020;-90
2022/04/07 10:11:40;;;;;;;4.53;0.50;;;11.80;99.90;;;;;;5072850;28;20540;-89
2022/04/07 10:14:05;;;;;;;0.93;0.55;;;11.70;99.90;;;;;;5072553;28;20078;-88
2022/04/07 10:16:40;;;;;;;1.05;0.40;;;11.60;99.90;;;;;;5072665;28;20020;-88
2022/04/07 10:19:10;;;;;;;0.77;0.70;;;11.50;99.90;;;;;;5072544;28;20073;-89
2022/04/07 10:22:15;;;;;;;1.50;0.90;;;11.50;99.90;;;;;;5072637;28;20618;-87
2022/04/07 10:24:47;;;;;;;1.77;0.43;;;11.70;99.90;;;;;;5072785;28;20519;-91
2022/04/07 10:27:19;;;;;;;2.00;1.35;;;11.80;99.90;;;;;;5054623;28;20036;-89
2022/04/07 10:30:05;;;;;;;0.52;0.52;;;11.80;99.90;;;;;;5072673;28;20362;-89
2022/04/07 10:32:43;;;;;;;1.58;0.70;;;11.80;99.90;;;;;;5072468;28;20027;-89
2022/04/07 10:39:00;;;;;;;0.40;0.40;;;11.50;99.90;;;;;;5076313;28;20127;-91
2022/04/07 10:41:38;;;;;;;0.40;0.40;;;11.20;99.90;;;;;;5058635;28;20119;-88
2022/04/07 10:44:50;;;;;;;0.40;0.40;;;11.10;99.90;;;;;;5058481;28;20384;-88
2022/04/07 10:47:28;;;;;;;2.25;0.80;;;11.10;99.90;;;;;;5076716;28;20033;-91
2022/04/07 10:49:56;;;;;;;1.65;0.60;;;10.90;99.90;;;;;;5058666;28;20111;-92
2022/04/07 10:52:35;;;;;;;4.45;0.80;;;10.90;99.90;;;;;;5076632;28;20025;-92
2022/04/07 10:55:12;;;;;;;5.28;0.68;;;10.80;99.90;;;;;;5059913;28;20052;-92
2022/04/07 10:58:32;;;;;;;0.52;0.50;;;10.70;99.90;;;;;;5059187;28;20048;-92
2022/04/07 11:00:58;;;;;;;0.60;0.55;;;10.70;99.90;;;;;;5077065;28;20101;-93
2022/04/07 11:03:24;;;;;;;0.50;0.50;;;10.70;99.90;;;;;;5055765;28;20117;-92
2022/04/07 11:06:30;;;;;;;1.02;0.57;;;10.70;99.90;;;;;;5057124;28;20036;-91
2022/04/07 11:09:14;;;;;;;1.40;0.40;;;10.80;99.90;;;;;;5071418;28;20400;-93
2022/04/07 11:12:07;;;;;;;2.90;0.52;;;10.80;99.90;;;;;;5055202;28;20029;-92
2022/04/07 11:14:33;;;;;;;1.20;0.60;;;10.90;99.90;;;;;;5056515;28;20032;-92
2022/04/07 11:17:13;;;;;;;0.93;0.93;;;11.00;99.90;;;;;;5055202;28;20025;-89
2022/04/07 11:20:30;;;;;;;0.45;0.45;;;11.10;99.90;;;;;;5056260;28;20036;-91
2022/04/07 11:26:39;;;;;;;0.85;0.55;;;11.20;99.90;;;;;;5030868;28;20115;-90
2022/04/07 11:29:12;;;;;;;3.15;1.63;;;11.20;99.90;;;;;;5054693;28;20119;-91
2022/04/07 11:32:06;;;;;;;2.85;0.50;;;11.20;99.90;;;;;;5054730;28;20029;-91
2022/04/07 11:34:38;;;;;;;0.55;0.55;;;11.30;99.90;;;;;;5055490;28;20084;-88
2022/04/07 11:40:27;;;;;;;2.90;0.50;;;11.30;99.90;;;;;;5055937;28;20070;-91
2022/04/07 11:42:53;;;;;;;0.98;0.77;;;11.40;99.90;;;;;;5054236;28;20025;-91
2022/04/07 11:45:18;;;;;;;0.98;0.45;;;11.50;99.90;;;;;;5055539;28;20362;-88
2022/04/07 11:47:49;;;;;;;2.40;0.73;;;11.60;99.90;;;;;;5055067;28;20021;-89
2022/04/07 11:50:22;;;;;;;0.43;0.43;;;11.70;99.90;;;;;;5054502;28;20487;-89
2022/04/07 11:52:49;;;;;;;1.65;0.60;;;11.80;99.90;;;;;;5055239;28;20401;-91
2022/04/07 11:55:30;;;;;;;1.00;0.55;;;11.90;99.90;;;;;;5055338;28;20018;-88
2022/04/07 11:57:59;;;;;;;0.52;0.52;;;12.00;99.90;;;;;;5055673;28;20021;-89
2022/04/07 12:00:31;;;;;;;1.15;1.05;;;12.10;99.90;;;;;;5055340;28;20021;-90
2022/04/07 12:03:05;;;;;;;0.52;0.52;;;12.10;99.90;;;;;;5065444;28;20075;-89
2022/04/07 12:05:42;;;;;;;3.80;0.77;;;12.00;99.90;;;;;;5057392;28;20043;-89
2022/04/07 12:08:12;;;;;;;0.40;0.40;;;12.10;99.90;;;;;;5075101;28;20511;-88
2022/04/07 12:10:44;;;;;;;1.15;0.60;;;12.20;99.90;;;;;;5074841;28;20036;-91
2022/04/07 12:13:15;;;;;;;1.00;0.50;;;12.10;99.90;;;;;;5057467;28;20038;-90
2022/04/07 12:15:41;;;;;;;0.50;0.50;;;12.00;99.90;;;;;;5057006;28;20422;-90
2022/04/07 12:18:08;;;;;;;0.63;0.50;;;12.00;99.90;;;;;;5075012;28;20103;-88
2022/04/07 12:20:36;;;;;;;1.90;0.50;;;12.00;99.90;;;;;;5057231;28;20024;-88
2022/04/07 12:23:34;;;;;;;2.90;0.52;;;12.10;99.90;;;;;;5056943;28;20032;-87
2022/04/07 12:26:02;;;;;;;0.63;0.60;;;12.20;99.90;;;;;;5074627;28;20021;-86
2022/04/07 12:29:04;;;;;;;1.38;0.70;;;12.10;99.90;;;;;;5074340;28;20504;-90
2022/04/07 12:31:30;;;;;;;2.10;0.50;;;12.00;99.90;;;;;;5058029;28;20027;-93
2022/04/07 12:34:11;;;;;;;1.38;0.70;;;11.90;99.90;;;;;;5077916;28;20028;-96
2022/04/07 12:36:43;;;;;;;3.50;0.80;;;11.80;99.90;;;;;;5061476;28;20029;-96
2022/04/07 12:39:12;;;;;;;2.17;0.60;;;11.60;99.90;;;;;;5058212;28;20036;-93
2022/04/07 12:41:51;;;;;;;1.58;0.75;;;11.60;99.90;;;;;;5059437;28;20023;-95
2022/04/07 12:44:22;;;;;;;0.90;0.47;;;11.50;99.90;;;;;;5058313;28;20063;-95
2022/04/07 12:47:01;;;;;;;1.67;1.00;;;11.50;99.90;;;;;;5058540;28;20078;-93
2022/04/07 12:52:49;;;;;;;4.35;0.63;;;11.30;99.90;;;;;;5076744;28;20491;-95
2022/04/07 12:55:54;;;;;;;0.40;0.40;;;11.20;99.90;;;;;;5060320;28;20017;-94
2022/04/07 13:05:05;;;;;;;1.08;0.60;;;8.90;99.90;;;;;;5077082;28;20048;-92
2022/04/07 13:07:51;;;;;;;3.55;0.70;;;8.50;99.90;;;;;;5058872;28;20040;-94
2022/04/07 13:10:18;;;;;;;4.55;0.68;;;8.30;99.90;;;;;;5058597;28;20066;-92
2022/04/07 13:16:31;;;;;;;7.93;0.65;;;8.00;99.90;;;;;;5077990;28;20039;-95
2022/04/07 13:18:58;;;;;;;15.00;4.10;;;7.90;99.90;;;;;;5060584;28;20028;-94
2022/04/07 13:21:25;;;;;;;0.60;0.55;;;7.80;99.90;;;;;;5059375;28;20031;-92
2022/04/07 13:23:50;;;;;;;3.45;0.70;;;7.70;99.90;;;;;;5061113;28;20476;-93
2022/04/07 13:26:16;;;;;;;5.22;0.93;;;7.70;99.90;;;;;;5060257;28;20036;-95
2022/04/07 13:32:43;;;;;;;0.82;0.50;;;7.30;99.90;;;;;;5077120;28;20032;-95
2022/04/07 13:35:10;;;;;;;2.20;0.70;;;7.20;99.90;;;;;;5060727;28;20036;-95
2022/04/07 13:40:57;;;;;;;1.30;0.73;;;7.30;99.90;;;;;;5077216;28;20145;-95